createdAt,value
2018-12-27T00:02:12.407Z,12.13
2018-12-27T00:04:39.818Z,12.37
2018-12-27T00:07:07.219Z,13.33
2018-12-27T00:09:35.204Z,12.90
2018-12-27T00:12:01.632Z,12.00
2018-12-27T00:14:28.727Z,12.47
2018-12-27T00:16:55.257Z,12.10
2018-12-27T00:19:21.619Z,11.97
2018-12-27T00:21:49.374Z,12.20
2018-12-27T00:24:16.027Z,11.40
2018-12-27T00:26:42.416Z,11.57
2018-12-27T00:29:08.803Z,11.97
2018-12-27T00:31:35.208Z,11.57
2018-12-27T00:34:01.623Z,11.90
2018-12-27T00:36:28.006Z,12.17
2018-12-27T00:38:55.663Z,12.07
2018-12-27T00:41:22.422Z,12.53
2018-12-27T00:43:48.836Z,11.93
2018-12-27T00:46:15.250Z,10.87
2018-12-27T00:48:41.677Z,11.73
2018-12-27T00:51:08.101Z,11.60
2018-12-27T00:53:34.522Z,11.43
2018-12-27T00:56:00.937Z,11.00
2018-12-27T00:58:27.699Z,11.70
2018-12-27T01:00:54.114Z,11.57
2018-12-27T01:03:20.519Z,11.80
2018-12-27T01:05:47.027Z,11.70
2018-12-27T01:08:13.464Z,12.03
2018-12-27T01:10:40.205Z,11.50
2018-12-27T01:13:06.783Z,12.07
2018-12-27T01:15:33.530Z,11.33
2018-12-27T01:18:00.301Z,11.10
2018-12-27T01:20:26.729Z,11.47
2018-12-27T01:22:54.890Z,11.73
2018-12-27T01:25:21.353Z,11.83
2018-12-27T01:27:47.763Z,11.87
2018-12-27T01:30:14.295Z,11.50
2018-12-27T01:32:40.747Z,11.70
2018-12-27T01:35:07.140Z,11.77
2018-12-27T01:37:33.536Z,10.87
2018-12-27T01:39:59.932Z,11.10
2018-12-27T01:42:26.719Z,11.40
2018-12-27T01:44:53.148Z,11.20
2018-12-27T01:47:19.598Z,11.40
2018-12-27T01:49:46.141Z,12.07
2018-12-27T01:52:12.861Z,12.17
2018-12-27T01:54:39.302Z,11.07
2018-12-27T01:57:05.756Z,10.97
2018-12-27T01:59:32.553Z,10.80
2018-12-27T02:01:59.486Z,10.63
2018-12-27T02:04:26.007Z,10.87
2018-12-27T02:06:52.401Z,10.87
2018-12-27T02:09:18.815Z,10.47
2018-12-27T02:11:45.319Z,11.20
2018-12-27T02:14:11.754Z,10.20
2018-12-27T02:16:38.142Z,10.73
2018-12-27T02:19:04.944Z,10.43
2018-12-27T02:21:31.299Z,10.63
2018-12-27T02:23:57.705Z,11.00
2018-12-27T02:26:25.493Z,10.73
2018-12-27T02:28:52.411Z,11.17
2018-12-27T02:31:18.971Z,10.67
2018-12-27T02:33:45.410Z,10.73
2018-12-27T02:36:11.838Z,10.73
2018-12-27T02:38:38.601Z,10.43
2018-12-27T02:41:05.059Z,10.10
2018-12-27T02:43:31.458Z,11.00
2018-12-27T02:45:58.230Z,11.30
2018-12-27T02:48:24.704Z,11.20
2018-12-27T02:50:51.114Z,10.83
2018-12-27T02:53:17.556Z,10.90
2018-12-27T02:55:44.355Z,10.10
2018-12-27T02:58:10.754Z,10.50
2018-12-27T03:00:37.562Z,10.17
2018-12-27T03:03:04.091Z,10.70
2018-12-27T03:05:30.873Z,10.90
2018-12-27T03:07:57.290Z,10.57
2018-12-27T03:10:24.864Z,10.27
2018-12-27T03:12:51.475Z,10.50
2018-12-27T03:15:18.315Z,10.43
2018-12-27T03:17:44.755Z,11.00
2018-12-27T03:20:11.291Z,11.53
2018-12-27T03:22:37.593Z,11.40
2018-12-27T03:25:04.007Z,11.13
2018-12-27T03:27:30.512Z,10.77
2018-12-27T03:29:57.044Z,11.37
2018-12-27T03:32:23.811Z,10.00
2018-12-27T03:34:50.220Z,10.50
2018-12-27T03:37:16.690Z,11.03
2018-12-27T03:39:43.290Z,11.20
2018-12-27T03:42:09.709Z,10.27
2018-12-27T03:44:36.429Z,11.40
2018-12-27T03:47:02.874Z,11.43
2018-12-27T03:49:29.366Z,10.83
2018-12-27T03:51:55.799Z,11.60
2018-12-27T03:54:22.272Z,10.73
2018-12-27T03:56:48.776Z,11.10
2018-12-27T03:59:15.149Z,11.63
2018-12-27T04:01:41.544Z,10.40
2018-12-27T04:04:07.967Z,11.50
2018-12-27T04:06:34.774Z,11.07
2018-12-27T04:09:01.209Z,11.30
2018-12-27T04:11:27.721Z,11.03
2018-12-27T04:13:54.410Z,11.33
2018-12-27T04:16:20.797Z,11.67
2018-12-27T04:18:47.241Z,11.33
2018-12-27T04:21:13.731Z,12.03
2018-12-27T04:23:40.775Z,10.97
2018-12-27T04:26:07.541Z,11.67
2018-12-27T04:28:33.941Z,11.60
2018-12-27T04:31:00.469Z,11.07
2018-12-27T04:33:27.834Z,12.13
2018-12-27T04:35:54.697Z,11.53
2018-12-27T04:38:21.155Z,12.03
2018-12-27T04:40:47.971Z,10.83
2018-12-27T04:43:15.693Z,12.13
2018-12-27T04:45:42.661Z,11.37
2018-12-27T04:48:09.098Z,11.87
2018-12-27T04:50:35.562Z,11.03
2018-12-27T04:53:02.008Z,12.07
2018-12-27T04:55:29.550Z,10.13
2018-12-27T04:57:56.181Z,11.90
2018-12-27T05:00:22.604Z,11.30
2018-12-27T05:02:49.013Z,11.63
2018-12-27T05:05:15.433Z,11.00
2018-12-27T05:07:41.853Z,11.53
2018-12-27T05:10:08.288Z,10.80
2018-12-27T05:12:35.095Z,12.27
2018-12-27T05:15:02.057Z,11.83
2018-12-27T05:17:28.448Z,10.47
2018-12-27T05:19:54.855Z,11.03
2018-12-27T05:22:21.365Z,10.73
2018-12-27T05:24:48.142Z,11.50
2018-12-27T05:27:14.944Z,10.93
2018-12-27T05:29:41.660Z,10.77
2018-12-27T05:32:08.060Z,10.87
2018-12-27T05:34:34.486Z,10.67
2018-12-27T05:37:00.889Z,9.87
2018-12-27T05:39:27.610Z,10.37
2018-12-27T05:41:54.082Z,9.73
2018-12-27T05:44:20.520Z,10.70
2018-12-27T05:46:47.006Z,10.87
2018-12-27T05:49:13.490Z,9.97
2018-12-27T05:51:39.909Z,10.13
2018-12-27T05:54:06.337Z,10.17
2018-12-27T05:56:33.150Z,10.30
2018-12-27T05:59:00.722Z,10.00
2018-12-27T06:01:27.091Z,9.73
2018-12-27T06:03:53.525Z,9.10
2018-12-27T06:06:20.279Z,9.33
2018-12-27T06:08:46.694Z,10.57
2018-12-27T06:11:13.141Z,10.33
2018-12-27T06:13:39.566Z,10.43
2018-12-27T06:16:06.033Z,9.90
2018-12-27T06:18:32.444Z,9.60
2018-12-27T06:20:58.824Z,9.10
2018-12-27T06:23:25.593Z,9.57
2018-12-27T06:25:52.022Z,8.93
2018-12-27T06:28:18.538Z,8.87
2018-12-27T06:30:45.068Z,9.47
2018-12-27T06:33:11.474Z,9.80
2018-12-27T06:35:37.874Z,9.60
2018-12-27T06:38:04.365Z,9.83
2018-12-27T06:40:31.293Z,9.63
2018-12-27T06:42:57.654Z,10.03
2018-12-27T06:48:01.223Z,10.10
2018-12-27T06:50:27.642Z,9.80
2018-12-27T06:52:54.521Z,9.60
2018-12-27T06:55:21.026Z,9.80
2018-12-27T06:57:47.422Z,9.20
2018-12-27T07:00:13.852Z,10.30
2018-12-27T07:02:40.275Z,9.60
2018-12-27T07:05:06.679Z,9.20
2018-12-27T07:07:33.480Z,9.70
2018-12-27T07:10:02.335Z,9.17
2018-12-27T07:12:28.823Z,10.17
2018-12-27T07:14:55.615Z,10.20
2018-12-27T07:17:22.141Z,9.43
2018-12-27T07:19:48.494Z,9.87
2018-12-27T07:22:16.091Z,10.60
2018-12-27T07:24:42.926Z,9.13
2018-12-27T07:27:09.374Z,9.70
2018-12-27T07:29:35.808Z,10.10
2018-12-27T07:32:02.557Z,9.47
2018-12-27T07:34:29.002Z,9.70
2018-12-27T07:36:55.514Z,9.47
2018-12-27T07:39:21.962Z,9.57
2018-12-27T07:41:48.363Z,9.00
2018-12-27T07:44:14.996Z,8.70
2018-12-27T07:46:41.452Z,9.27
2018-12-27T07:49:08.197Z,8.87
2018-12-27T07:51:34.688Z,9.03
2018-12-27T07:54:01.216Z,9.37
2018-12-27T07:56:28.090Z,9.40
2018-12-27T07:58:54.904Z,9.67
2018-12-27T08:01:21.426Z,9.63
2018-12-27T08:03:47.925Z,9.93
2018-12-27T08:06:14.386Z,9.87
2018-12-27T08:08:40.915Z,10.40
2018-12-27T08:11:07.323Z,10.53
2018-12-27T08:13:33.918Z,10.30
2018-12-27T08:16:00.659Z,10.00
2018-12-27T08:18:27.111Z,9.50
2018-12-27T08:20:53.541Z,8.07
2018-12-27T08:23:19.959Z,9.67
2018-12-27T08:25:46.415Z,9.47
2018-12-27T08:28:12.820Z,8.23
2018-12-27T08:30:39.312Z,9.27
2018-12-27T08:33:06.126Z,8.60
2018-12-27T08:35:32.561Z,8.73
2018-12-27T08:37:58.899Z,9.10
2018-12-27T08:40:25.293Z,8.27
2018-12-27T08:42:51.731Z,8.23
2018-12-27T08:45:18.496Z,7.80
2018-12-27T08:47:45.045Z,8.37
2018-12-27T08:50:11.946Z,8.53
2018-12-27T08:52:38.693Z,8.50
2018-12-27T08:55:05.430Z,8.30
2018-12-27T08:57:31.778Z,8.37
2018-12-27T08:59:58.618Z,8.20
2018-12-27T09:02:25.095Z,8.23
2018-12-27T09:04:51.530Z,8.40
2018-12-27T09:07:18.890Z,8.40
2018-12-27T09:09:45.727Z,8.67
2018-12-27T09:12:12.079Z,7.47
2018-12-27T09:14:38.506Z,8.33
2018-12-27T09:17:05.008Z,7.47
2018-12-27T09:19:31.495Z,7.77
2018-12-27T09:21:58.044Z,7.20
2018-12-27T09:24:24.569Z,7.23
2018-12-27T09:26:51.349Z,7.50
2018-12-27T09:29:18.022Z,6.80
2018-12-27T09:31:44.609Z,6.87
2018-12-27T09:34:11.018Z,7.50
2018-12-27T09:36:37.416Z,7.67
2018-12-27T09:39:05.171Z,7.17
2018-12-27T09:41:33.032Z,6.60
2018-12-27T09:43:59.862Z,6.60
2018-12-27T09:46:26.260Z,6.43
2018-12-27T09:48:52.660Z,6.67
2018-12-27T09:51:19.150Z,6.47
2018-12-27T09:53:46.799Z,6.77
2018-12-27T09:56:14.382Z,6.10
2018-12-27T09:58:41.134Z,6.00
2018-12-27T10:01:07.766Z,5.57
2018-12-27T10:03:34.180Z,6.37
2018-12-27T10:06:00.643Z,6.10
2018-12-27T10:08:27.767Z,6.00
2018-12-27T10:10:54.212Z,5.73
2018-12-27T10:13:20.658Z,6.10
2018-12-27T10:15:47.234Z,6.53
2018-12-27T10:18:13.657Z,6.10
2018-12-27T10:20:40.279Z,6.17
2018-12-27T10:23:06.635Z,5.93
2018-12-27T10:25:33.436Z,6.13
2018-12-27T10:27:59.852Z,6.30
2018-12-27T10:30:26.290Z,6.20
2018-12-27T10:32:52.744Z,5.83
2018-12-27T10:35:19.145Z,6.30
2018-12-27T10:37:45.594Z,6.10
2018-12-27T10:40:13.102Z,6.13
2018-12-27T10:42:39.518Z,6.30
2018-12-27T10:45:07.907Z,6.53
2018-12-27T10:47:34.560Z,5.80
2018-12-27T10:50:01.018Z,6.80
2018-12-27T10:52:27.499Z,5.77
2018-12-27T10:54:54.172Z,6.10
2018-12-27T10:57:20.778Z,6.50
2018-12-27T10:59:47.281Z,6.27
2018-12-27T11:02:15.236Z,6.00
2018-12-27T11:04:42.208Z,6.20
2018-12-27T11:07:08.665Z,6.40
2018-12-27T11:09:37.321Z,6.33
2018-12-27T11:12:03.966Z,6.57
2018-12-27T11:14:30.409Z,6.37
2018-12-27T11:16:57.270Z,6.67
2018-12-27T11:19:23.787Z,6.60
2018-12-27T11:21:50.343Z,6.63
2018-12-27T11:24:17.110Z,6.30
2018-12-27T11:26:43.952Z,6.90
2018-12-27T11:29:10.382Z,6.60
2018-12-27T11:31:36.802Z,6.50
2018-12-27T11:34:03.936Z,6.47
2018-12-27T11:36:30.730Z,6.33
2018-12-27T11:38:57.114Z,7.03
2018-12-27T11:41:23.634Z,6.60
2018-12-27T11:43:50.929Z,5.97
2018-12-27T11:46:17.663Z,5.80
2018-12-27T11:48:44.282Z,6.50
2018-12-27T11:51:11.583Z,6.87
2018-12-27T11:53:38.026Z,6.30
2018-12-27T11:56:04.587Z,6.23
2018-12-27T11:58:31.064Z,6.47
2018-12-27T12:00:57.541Z,6.10
2018-12-27T12:03:24.069Z,6.97
2018-12-27T12:05:50.870Z,6.27
2018-12-27T12:08:18.001Z,5.90
2018-12-27T12:10:44.492Z,5.70
2018-12-27T12:13:11.252Z,6.23
2018-12-27T12:15:37.798Z,6.83
2018-12-27T12:18:04.205Z,6.27
2018-12-27T12:20:30.637Z,6.07
2018-12-27T12:22:57.076Z,6.00
2018-12-27T12:25:23.534Z,5.97
2018-12-27T12:27:49.935Z,6.10
2018-12-27T12:30:16.716Z,5.80
2018-12-27T12:32:43.151Z,5.97
2018-12-27T12:35:09.781Z,5.63
2018-12-27T12:37:36.504Z,6.10
2018-12-27T12:40:04.493Z,6.93
2018-12-27T12:42:33.183Z,6.97
2018-12-27T12:44:59.602Z,7.00
2018-12-27T12:47:28.301Z,6.83
2018-12-27T12:49:54.809Z,7.97
2018-12-27T12:52:21.542Z,7.93
2018-12-27T12:54:48.025Z,7.70
2018-12-27T12:57:14.434Z,7.90
2018-12-27T12:59:40.945Z,7.90
2018-12-27T13:02:07.580Z,7.47
2018-12-27T13:04:34.408Z,7.97
2018-12-27T13:07:00.962Z,8.23
2018-12-27T13:09:27.514Z,8.97
2018-12-27T13:11:54.006Z,8.23
2018-12-27T13:14:20.542Z,8.47
2018-12-27T13:16:47.651Z,8.37
2018-12-27T13:19:14.418Z,8.43
2018-12-27T13:21:43.696Z,8.73
2018-12-27T13:24:10.458Z,8.70
2018-12-27T13:26:37.410Z,9.30
2018-12-27T13:29:03.828Z,9.23
2018-12-27T13:31:30.684Z,9.37
2018-12-27T13:33:57.206Z,9.73
2018-12-27T13:36:25.511Z,9.13
2018-12-27T13:38:52.373Z,10.00
2018-12-27T13:41:19.038Z,9.37
2018-12-27T13:43:45.753Z,9.93
2018-12-27T13:46:13.018Z,9.77
2018-12-27T13:48:39.839Z,10.70
2018-12-27T13:51:06.934Z,10.97
2018-12-27T13:53:33.431Z,9.87
2018-12-27T13:56:00.249Z,9.97
2018-12-27T13:58:27.048Z,9.40
2018-12-27T14:00:53.536Z,9.60
2018-12-27T14:03:19.903Z,9.30
2018-12-27T14:05:46.508Z,10.80
2018-12-27T14:08:12.950Z,11.10
2018-12-27T14:10:39.419Z,10.63
2018-12-27T14:13:06.318Z,9.73
2018-12-27T14:15:33.268Z,10.40
2018-12-27T14:17:59.663Z,9.97
2018-12-27T14:20:26.174Z,10.43
2018-12-27T14:22:53.031Z,10.83
2018-12-27T14:25:19.435Z,10.13
2018-12-27T14:27:45.975Z,10.80
2018-12-27T14:30:12.735Z,10.27
2018-12-27T14:32:39.181Z,9.93
2018-12-27T14:35:06.411Z,9.83
2018-12-27T14:37:32.877Z,10.83
2018-12-27T14:39:59.562Z,10.40
2018-12-27T14:42:28.631Z,11.50
2018-12-27T14:44:56.044Z,10.37
2018-12-27T14:47:22.616Z,10.80
2018-12-27T14:49:49.174Z,10.63
2018-12-27T14:52:15.728Z,10.63
2018-12-27T14:54:42.371Z,11.27
2018-12-27T14:57:09.324Z,11.33
2018-12-27T14:59:36.178Z,10.80
2018-12-27T15:02:03.066Z,11.33
2018-12-27T15:04:29.599Z,10.40
2018-12-27T15:06:56.433Z,11.33
2018-12-27T15:09:22.895Z,10.80
2018-12-27T15:11:49.488Z,11.07
2018-12-27T15:14:16.378Z,11.23
2018-12-27T15:16:45.063Z,10.73
2018-12-27T15:19:12.855Z,11.33
2018-12-27T15:21:40.209Z,10.97
2018-12-27T15:24:06.739Z,10.90
2018-12-27T15:26:33.522Z,10.53
2018-12-27T15:29:00.375Z,11.07
2018-12-27T15:31:27.144Z,10.80
2018-12-27T15:33:53.647Z,10.10
2018-12-27T15:36:20.163Z,11.67
2018-12-27T15:38:47.695Z,11.53
2018-12-27T15:41:14.283Z,11.20
2018-12-27T15:43:41.143Z,11.57
2018-12-27T15:46:07.599Z,11.83
2018-12-27T15:48:34.618Z,12.07
2018-12-27T15:51:01.445Z,11.90
2018-12-27T15:53:28.367Z,11.60
2018-12-27T15:55:55.121Z,12.20
2018-12-27T15:58:22.712Z,11.47
2018-12-27T16:00:49.564Z,12.33
2018-12-27T16:03:16.170Z,11.87
2018-12-27T16:05:43.142Z,11.87
2018-12-27T16:08:09.714Z,11.63
2018-12-27T16:10:38.444Z,11.70
2018-12-27T16:13:07.877Z,12.10
2018-12-27T16:15:34.353Z,11.83
2018-12-27T16:18:01.125Z,11.60
2018-12-27T16:20:27.566Z,12.80
2018-12-27T16:22:53.989Z,11.63
2018-12-27T16:25:20.776Z,11.93
2018-12-27T16:27:47.663Z,11.93
2018-12-27T16:30:14.266Z,10.47
2018-12-27T16:32:41.197Z,11.30
2018-12-27T16:35:07.900Z,11.37
2018-12-27T16:37:34.410Z,11.00
2018-12-27T16:40:02.168Z,11.57
2018-12-27T16:42:28.809Z,11.40
2018-12-27T16:44:55.320Z,11.23
2018-12-27T16:47:21.931Z,11.83
2018-12-27T16:49:48.887Z,11.60
2018-12-27T16:52:15.548Z,11.60
2018-12-27T16:54:42.091Z,11.63
2018-12-27T16:57:09.316Z,12.00
2018-12-27T16:59:35.857Z,12.77
2018-12-27T17:02:02.384Z,12.83
2018-12-27T17:04:29.082Z,13.00
2018-12-27T17:06:57.472Z,12.93
2018-12-27T17:09:25.483Z,11.70
2018-12-27T17:11:52.785Z,11.43
2018-12-27T17:14:21.533Z,10.67
2018-12-27T17:16:48.662Z,10.37
2018-12-27T17:19:15.283Z,10.23
2018-12-27T17:21:43.616Z,10.20
2018-12-27T17:24:12.143Z,9.50
2018-12-27T17:26:40.461Z,9.43
2018-12-27T17:29:08.794Z,10.03
2018-12-27T17:31:37.148Z,11.47
2018-12-27T17:34:08.584Z,10.57
2018-12-27T17:36:36.915Z,11.70
2018-12-27T17:39:05.541Z,11.47
2018-12-27T17:41:33.808Z,12.53
2018-12-27T17:44:02.193Z,12.07
2018-12-27T17:46:30.529Z,11.93
2018-12-27T17:48:58.918Z,12.33
2018-12-27T17:51:27.319Z,12.37
2018-12-27T17:53:55.732Z,11.50
2018-12-27T17:56:24.119Z,11.67
2018-12-27T17:58:52.442Z,11.60
2018-12-27T18:01:20.779Z,12.80
2018-12-27T18:03:49.160Z,11.67
2018-12-27T18:06:17.561Z,10.53
2018-12-27T18:08:45.894Z,11.13
2018-12-27T18:11:14.225Z,11.30
2018-12-27T18:13:42.541Z,12.37
2018-12-27T18:16:11.283Z,12.10
2018-12-27T18:18:39.648Z,11.77
2018-12-27T18:21:08.541Z,11.30
2018-12-27T18:23:36.875Z,12.67
2018-12-27T18:26:05.343Z,13.67
2018-12-27T18:28:33.690Z,13.07
2018-12-27T18:31:02.054Z,13.00
2018-12-27T18:33:29.356Z,12.43
2018-12-27T18:35:55.831Z,11.97
2018-12-27T18:38:22.191Z,12.50
2018-12-27T18:40:48.551Z,11.63
2018-12-27T18:43:14.977Z,11.40
2018-12-27T18:45:41.581Z,11.97
2018-12-27T18:48:08.996Z,11.50
2018-12-27T18:50:35.462Z,11.20
2018-12-27T18:53:01.950Z,10.27
2018-12-27T18:55:30.153Z,10.57
2018-12-27T18:57:56.842Z,10.63
2018-12-27T19:00:23.256Z,11.20
2018-12-27T19:02:49.647Z,10.77
2018-12-27T19:05:16.059Z,11.80
2018-12-27T19:07:45.042Z,11.53
2018-12-27T19:10:11.951Z,11.53
2018-12-27T19:13:02.200Z,12.73
2018-12-27T19:15:29.719Z,12.00
2018-12-27T19:17:56.288Z,13.93
2018-12-27T19:20:23.117Z,13.67
2018-12-27T19:22:53.344Z,12.53
2018-12-27T19:25:19.868Z,12.57
2018-12-27T19:27:46.345Z,12.33
2018-12-27T19:30:12.747Z,14.00
2018-12-27T19:32:39.284Z,13.47
2018-12-27T19:35:05.962Z,12.97
2018-12-27T19:37:32.620Z,13.53
2018-12-27T19:39:59.038Z,13.77
2018-12-27T19:42:26.087Z,13.40
2018-12-27T19:44:52.897Z,14.80
2018-12-27T19:47:19.649Z,16.73
2018-12-27T19:49:46.053Z,15.27
2018-12-27T19:52:13.201Z,15.47
2018-12-27T19:54:39.718Z,15.40
2018-12-27T19:57:06.195Z,14.83
2018-12-27T19:59:34.160Z,16.60
2018-12-27T20:02:00.568Z,15.63
2018-12-27T20:04:27.513Z,15.37
2018-12-27T20:06:54.516Z,15.67
2018-12-27T20:09:21.001Z,14.47
2018-12-27T20:11:47.506Z,14.30
2018-12-27T20:14:15.388Z,14.57
2018-12-27T20:16:42.212Z,15.50
2018-12-27T20:19:08.826Z,15.20
2018-12-27T20:21:35.374Z,14.00
2018-12-27T20:24:01.967Z,15.00
2018-12-27T20:26:28.790Z,14.50
2018-12-27T20:28:55.393Z,14.63
2018-12-27T20:31:22.012Z,14.00
2018-12-27T20:33:48.696Z,14.67
2018-12-27T20:36:15.321Z,13.00
2018-12-27T20:38:41.767Z,13.30
2018-12-27T20:41:08.418Z,13.90
2018-12-27T20:43:35.283Z,13.47
2018-12-27T20:46:01.873Z,11.77
2018-12-27T20:48:28.928Z,11.50
2018-12-27T20:50:55.619Z,13.03
2018-12-27T20:53:22.201Z,11.37
2018-12-27T20:55:48.596Z,11.43
2018-12-27T20:58:15.037Z,12.37
2018-12-27T21:00:41.826Z,12.43
2018-12-27T21:03:08.454Z,11.07
2018-12-27T21:05:34.808Z,11.47
2018-12-27T21:08:01.240Z,12.03
2018-12-27T21:10:27.697Z,11.73
2018-12-27T21:12:54.650Z,12.23
2018-12-27T21:15:21.076Z,11.83
2018-12-27T21:17:47.602Z,10.77
2018-12-27T21:20:14.118Z,11.97
2018-12-27T21:22:40.592Z,11.10
2018-12-27T21:25:07.236Z,13.70
2018-12-27T21:27:34.093Z,12.20
2018-12-27T21:30:01.091Z,11.47
2018-12-27T21:32:27.541Z,12.80
2018-12-27T21:34:54.082Z,14.07
2018-12-27T21:37:20.677Z,14.10
2018-12-27T21:39:47.225Z,12.63
2018-12-27T21:42:13.752Z,13.27
2018-12-27T21:44:42.008Z,11.90
2018-12-27T21:47:08.520Z,14.07
2018-12-27T21:49:35.244Z,15.50
2018-12-27T21:52:02.122Z,15.00
2018-12-27T21:54:28.743Z,15.23
2018-12-27T21:56:55.233Z,14.87
2018-12-27T21:59:23.415Z,14.77
2018-12-27T22:01:49.914Z,14.13
2018-12-27T22:04:16.830Z,14.20
2018-12-27T22:06:43.457Z,12.83
2018-12-27T22:09:09.927Z,14.17
2018-12-27T22:11:36.308Z,13.27
2018-12-27T22:14:03.230Z,13.50
2018-12-27T22:16:30.359Z,13.00
2018-12-27T22:18:56.896Z,14.47
2018-12-27T22:21:23.746Z,14.37
2018-12-27T22:23:50.178Z,13.50
2018-12-27T22:26:18.476Z,13.43
2018-12-27T22:28:46.752Z,13.17
2018-12-27T22:31:15.133Z,13.43
2018-12-27T22:33:43.805Z,14.07
2018-12-27T22:36:12.053Z,12.87
2018-12-27T22:38:40.412Z,13.20
2018-12-27T22:41:08.650Z,13.50
2018-12-27T22:43:37.042Z,14.53
2018-12-27T22:46:05.302Z,13.90
2018-12-27T22:48:33.659Z,12.63
2018-12-27T22:51:02.163Z,13.67
2018-12-27T22:53:30.545Z,13.83
2018-12-27T22:55:59.028Z,14.23
2018-12-27T22:58:27.385Z,13.13
2018-12-27T23:00:56.214Z,13.23
2018-12-27T23:03:24.963Z,14.00
2018-12-27T23:05:53.529Z,12.90
2018-12-27T23:08:22.008Z,12.77
2018-12-27T23:10:50.521Z,12.77
2018-12-27T23:13:18.823Z,13.07
2018-12-27T23:15:47.380Z,13.63
2018-12-27T23:18:15.776Z,13.43
2018-12-27T23:20:44.070Z,14.23
2018-12-27T23:23:12.468Z,13.37
2018-12-27T23:25:40.894Z,13.23
2018-12-27T23:28:09.207Z,12.87
2018-12-27T23:30:37.571Z,12.17
2018-12-27T23:33:05.922Z,12.80
2018-12-27T23:35:33.319Z,14.10
2018-12-27T23:37:59.835Z,14.10
2018-12-27T23:40:26.725Z,13.70
2018-12-27T23:42:53.100Z,13.90
2018-12-27T23:45:22.856Z,13.60
2018-12-27T23:47:49.237Z,13.67
2018-12-27T23:50:16.037Z,13.43
2018-12-27T23:52:42.761Z,13.93
2018-12-27T23:55:09.203Z,13.93
2018-12-27T23:57:35.930Z,13.50
